Time;durP1;ratioP1;P1;durP2;ratioP2;P2;SDS_P1;SDS_P2;PMS_P1;PMS_P2;Temp;Humidity;BMP_temperature;BMP_pressure;BME280_temperature;BME280_humidity;BME280_pressure;Samples;Min_cycle;Max_cycle;Signal;HPM_P1;HPM_P2
2022/01/09 00:00:17;;;;;;;1.25;0.55;;;3.60;99.90;;;;;;4986142;28;20658;-81
2022/01/09 00:02:43;;;;;;;1.45;1.35;;;3.50;99.90;;;;;;4979055;28;20578;-82
2022/01/09 00:05:10;;;;;;;1.00;0.90;;;3.60;99.90;;;;;;4984142;28;20180;-85
2022/01/09 00:07:36;;;;;;;1.15;0.73;;;3.50;99.90;;;;;;4989819;28;20486;-85
2022/01/09 00:10:03;;;;;;;0.77;0.67;;;3.50;99.90;;;;;;4983978;28;20180;-85
2022/01/09 00:12:29;;;;;;;1.02;0.70;;;3.50;99.90;;;;;;4996977;28;20530;-85
2022/01/09 00:14:55;;;;;;;1.53;1.10;;;3.50;99.90;;;;;;4996562;28;20215;-86
2022/01/09 00:17:20;;;;;;;0.97;0.97;;;3.50;99.90;;;;;;4997735;28;20464;-85
2022/01/09 00:19:46;;;;;;;1.40;0.93;;;3.50;99.90;;;;;;4986607;28;20187;-90
2022/01/09 00:22:13;;;;;;;1.93;1.40;;;3.50;99.90;;;;;;4994574;22;20588;-82
2022/01/09 00:24:39;;;;;;;2.55;1.90;;;3.50;99.90;;;;;;4973397;28;20205;-82
2022/01/09 00:27:05;;;;;;;2.30;2.10;;;3.50;99.90;;;;;;4967754;28;20188;-81
2022/01/09 00:29:30;;;;;;;3.33;2.70;;;3.40;99.90;;;;;;4968942;28;20196;-82
2022/01/09 00:31:56;;;;;;;1.07;0.93;;;3.50;99.90;;;;;;4971260;28;20204;-82
2022/01/09 00:34:21;;;;;;;2.00;1.47;;;3.40;99.90;;;;;;4967884;28;20176;-83
2022/01/09 00:36:47;;;;;;;1.43;1.37;;;3.40;99.90;;;;;;4967332;28;20185;-82
2022/01/09 00:39:13;;;;;;;2.83;1.27;;;3.40;99.90;;;;;;4969813;28;20180;-81
2022/01/09 00:41:39;;;;;;;0.83;0.80;;;;;;;;;;4965874;28;20559;-82
2022/01/09 00:44:05;;;;;;;0.80;0.60;;;3.50;99.90;;;;;;4959805;28;20197;-82
2022/01/09 00:46:33;;;;;;;10.60;6.22;;;3.40;99.90;;;;;;4967100;28;20525;-81
2022/01/09 00:49:02;;;;;;;1.08;0.90;;;3.50;99.90;;;;;;4966552;28;20181;-80
2022/01/09 00:51:27;;;;;;;0.70;0.68;;;3.40;99.90;;;;;;4967662;28;20255;-81
2022/01/09 00:53:53;;;;;;;3.50;0.60;;;3.40;99.90;;;;;;4963250;28;20231;-82
2022/01/09 00:56:19;;;;;;;0.67;0.40;;;3.40;99.90;;;;;;4968001;28;20177;-82
2022/01/09 00:58:44;;;;;;;0.67;0.67;;;3.40;99.90;;;;;;4969246;28;20590;-82
2022/01/09 01:01:10;;;;;;;1.00;0.87;;;3.40;99.90;;;;;;4977276;28;20264;-83
2022/01/09 01:03:35;;;;;;;0.80;0.67;;;3.30;99.90;;;;;;4968219;28;20196;-82
2022/01/09 01:06:01;;;;;;;0.57;0.57;;;3.30;99.90;;;;;;4974389;28;20172;-82
2022/01/09 01:08:29;;;;;;;0.70;0.70;;;3.30;99.90;;;;;;4966774;28;20188;-81
2022/01/09 01:10:55;;;;;;;0.80;0.50;;;3.30;99.90;;;;;;4969093;28;20188;-83
2022/01/09 01:13:21;;;;;;;0.80;0.57;;;3.30;99.90;;;;;;4965592;28;20216;-82
2022/01/09 01:15:46;;;;;;;0.63;0.63;;;3.30;99.90;;;;;;4968877;28;20243;-82
2022/01/09 01:18:12;;;;;;;0.43;0.40;;;3.40;99.90;;;;;;4965061;28;20263;-82
2022/01/09 01:20:38;;;;;;;0.60;0.40;;;;;;;;;;4962703;28;20210;-82
2022/01/09 01:23:04;;;;;;;0.50;0.30;;;3.40;99.90;;;;;;4963084;28;20212;-85
2022/01/09 01:25:30;;;;;;;0.60;0.50;;;3.40;99.90;;;;;;4965158;28;20185;-83
2022/01/09 01:27:55;;;;;;;0.50;0.50;;;3.40;99.90;;;;;;4964095;28;20267;-82
2022/01/09 01:30:21;;;;;;;0.40;0.40;;;3.40;99.90;;;;;;4971825;28;20526;-83
2022/01/09 01:32:46;;;;;;;1.50;1.40;;;3.40;99.90;;;;;;4974704;28;20562;-83
2022/01/09 01:35:12;;;;;;;1.30;1.10;;;3.50;99.90;;;;;;4974717;28;20180;-82
2022/01/09 01:37:41;;;;;;;0.87;0.73;;;3.40;99.90;;;;;;4975379;28;20184;-83
2022/01/09 01:40:08;;;;;;;0.40;0.40;;;3.40;99.90;;;;;;4974838;28;20194;-83
2022/01/09 01:42:34;;;;;;;0.60;0.30;;;3.50;99.90;;;;;;4974661;28;20199;-83
2022/01/09 01:45:00;;;;;;;3.00;2.03;;;3.60;99.90;;;;;;4984989;28;20165;-82
2022/01/09 01:47:25;;;;;;;0.40;0.30;;;3.50;99.90;;;;;;4964238;28;20206;-83
2022/01/09 01:49:51;;;;;;;0.80;0.73;;;3.60;99.90;;;;;;4975365;28;20229;-82
2022/01/09 01:52:21;;;;;;;0.40;0.40;;;3.70;99.90;;;;;;4972997;28;20225;-81
2022/01/09 01:54:47;;;;;;;0.45;0.45;;;3.60;99.90;;;;;;4954681;28;20640;-83
2022/01/09 01:57:13;;;;;;;0.40;0.27;;;3.60;99.90;;;;;;4959505;28;20192;-80
2022/01/09 01:59:38;;;;;;;2.00;0.80;;;3.60;99.90;;;;;;4975411;28;20553;-82
2022/01/09 02:02:04;;;;;;;0.40;0.40;;;3.60;99.90;;;;;;4974315;28;20207;-81
2022/01/09 02:04:30;;;;;;;1.80;1.10;;;3.60;99.90;;;;;;4970723;28;20195;-81
2022/01/09 02:06:56;;;;;;;0.50;0.30;;;3.60;99.90;;;;;;4963829;28;20438;-80
2022/01/09 02:09:23;;;;;;;1.05;0.60;;;3.70;99.90;;;;;;4972935;28;20334;-82
2022/01/09 02:11:48;;;;;;;0.47;0.47;;;3.60;99.90;;;;;;4971970;28;20742;-81
2022/01/09 02:14:14;;;;;;;0.60;0.50;;;3.70;99.90;;;;;;4963612;28;20220;-82
2022/01/09 02:16:41;;;;;;;0.63;0.40;;;3.80;99.90;;;;;;4967397;28;20181;-82
2022/01/09 02:19:08;;;;;;;0.70;0.45;;;3.90;99.90;;;;;;4963154;28;20177;-81
2022/01/09 02:21:34;;;;;;;2.38;1.25;;;3.90;99.90;;;;;;4971039;28;20179;-81
2022/01/09 02:24:00;;;;;;;0.50;0.40;;;3.90;99.90;;;;;;4971524;28;20196;-81
2022/01/09 02:26:26;;;;;;;0.90;0.47;;;3.90;99.90;;;;;;4965248;28;20448;-82
2022/01/09 02:28:52;;;;;;;2.38;0.43;;;4.10;99.90;;;;;;4966163;28;20188;-82
2022/01/09 02:31:19;;;;;;;0.40;0.30;;;4.10;99.90;;;;;;4970518;28;20180;-82
2022/01/09 02:33:45;;;;;;;0.45;0.40;;;4.10;99.90;;;;;;4972833;28;20466;-81
2022/01/09 02:36:10;;;;;;;0.50;0.37;;;4.10;99.90;;;;;;4967117;28;20184;-82
2022/01/09 02:38:37;;;;;;;0.30;0.30;;;4.20;99.90;;;;;;4971404;28;20875;-81
2022/01/09 02:41:03;;;;;;;0.50;0.40;;;4.20;99.90;;;;;;4969247;28;20191;-81
2022/01/09 02:43:28;;;;;;;1.27;0.73;;;4.20;99.90;;;;;;4969908;28;20259;-81
2022/01/09 02:46:05;;;;;;;0.40;0.30;;;4.30;99.90;;;;;;4973694;28;20439;-80
2022/01/09 02:48:37;;;;;;;0.43;0.38;;;4.30;99.90;;;;;;4969829;28;20250;-81
2022/01/09 02:51:09;;;;;;;0.60;0.30;;;4.30;99.90;;;;;;4967889;28;20176;-82
2022/01/09 02:53:36;;;;;;;1.13;0.50;;;4.40;99.90;;;;;;4964369;28;20719;-81
2022/01/09 02:56:04;;;;;;;0.55;0.40;;;4.30;99.90;;;;;;4972558;28;20181;-81
2022/01/09 02:58:29;;;;;;;0.75;0.40;;;4.40;99.90;;;;;;4968732;28;20183;-82
2022/01/09 03:00:55;;;;;;;0.73;0.43;;;4.30;99.90;;;;;;4967243;28;20172;-82
2022/01/09 03:03:21;;;;;;;0.90;0.60;;;4.30;99.90;;;;;;4967670;28;20207;-81
2022/01/09 03:05:46;;;;;;;0.40;0.30;;;4.30;99.90;;;;;;4968240;28;20684;-81
2022/01/09 03:08:12;;;;;;;0.47;0.33;;;4.20;99.90;;;;;;4968141;28;20193;-81
2022/01/09 03:10:38;;;;;;;1.60;0.53;;;4.30;99.90;;;;;;4970129;28;20188;-82
2022/01/09 03:13:06;;;;;;;0.40;0.40;;;4.40;99.90;;;;;;4967615;28;20589;-81
2022/01/09 03:15:32;;;;;;;1.25;0.47;;;4.40;99.90;;;;;;4983153;28;20589;-83
2022/01/09 03:17:58;;;;;;;0.53;0.30;;;;;;;;;;4970896;28;20176;-82
2022/01/09 03:20:25;;;;;;;1.17;0.40;;;4.50;99.90;;;;;;4974877;28;20451;-81
2022/01/09 03:22:51;;;;;;;0.80;0.50;;;4.60;99.90;;;;;;4968364;28;20470;-82
2022/01/09 03:25:17;;;;;;;0.50;0.40;;;4.60;99.90;;;;;;4975531;28;20207;-83
2022/01/09 03:27:51;;;;;;;0.40;0.30;;;4.60;99.90;;;;;;4984386;28;20672;-82
2022/01/09 03:30:19;;;;;;;1.15;0.50;;;4.70;99.90;;;;;;4972026;28;20439;-83
2022/01/09 03:32:45;;;;;;;0.40;0.30;;;4.80;99.90;;;;;;4977592;28;20191;-83
2022/01/09 03:35:13;;;;;;;0.60;0.45;;;4.90;99.90;;;;;;4967840;28;20196;-82
2022/01/09 03:37:41;;;;;;;0.75;0.40;;;4.90;99.90;;;;;;4970081;28;20184;-81
2022/01/09 03:40:10;;;;;;;0.40;0.30;;;4.90;99.90;;;;;;4970624;28;20579;-82
2022/01/09 03:42:36;;;;;;;0.50;0.40;;;4.90;99.90;;;;;;4979440;28;20572;-82
2022/01/09 03:45:03;;;;;;;0.93;0.53;;;5.00;99.90;;;;;;4972355;28;20239;-82
2022/01/09 03:47:29;;;;;;;0.60;0.40;;;5.00;99.90;;;;;;4969699;28;20215;-82
2022/01/09 03:49:54;;;;;;;0.40;0.30;;;5.00;99.90;;;;;;4966969;28;20195;-82
2022/01/09 03:52:25;;;;;;;0.40;0.30;;;5.00;99.90;;;;;;4962851;28;20208;-81
2022/01/09 03:54:51;;;;;;;1.15;0.40;;;5.00;99.90;;;;;;4970564;28;20748;-82
2022/01/09 03:57:17;;;;;;;0.67;0.30;;;;;;;;;;4964811;28;20246;-81
2022/01/09 03:59:42;;;;;;;0.40;0.40;;;5.10;99.90;;;;;;4966165;28;20188;-82
2022/01/09 04:02:08;;;;;;;0.40;0.40;;;5.10;99.90;;;;;;4971536;28;20461;-81
2022/01/09 04:04:33;;;;;;;1.50;0.53;;;4.90;99.90;;;;;;4965457;28;20192;-80
2022/01/09 04:06:59;;;;;;;0.60;0.40;;;;;;;;;;4973110;28;20554;-81
2022/01/09 04:09:37;;;;;;;1.00;0.30;;;4.90;99.90;;;;;;4964560;28;20184;-82
2022/01/09 04:12:06;;;;;;;0.30;0.20;;;4.80;99.90;;;;;;4964447;28;20476;-83
2022/01/09 04:14:32;;;;;;;4.00;0.50;;;4.80;99.90;;;;;;4966532;28;20220;-81
2022/01/09 04:17:00;;;;;;;0.50;0.30;;;;;;;;;;4962392;28;20185;-83
2022/01/09 04:19:26;;;;;;;0.50;0.40;;;4.80;99.90;;;;;;4967584;28;20436;-84
2022/01/09 04:21:51;;;;;;;0.40;0.40;;;4.80;99.90;;;;;;4967427;28;20210;-82
2022/01/09 04:24:17;;;;;;;0.50;0.30;;;4.70;99.90;;;;;;4961884;28;20215;-82
2022/01/09 04:26:43;;;;;;;0.30;0.20;;;;;;;;;;4970690;28;20263;-83
2022/01/09 04:29:09;;;;;;;0.30;0.20;;;;;;;;;;4971948;28;20184;-83
2022/01/09 04:31:34;;;;;;;0.30;0.20;;;4.60;99.90;;;;;;4966834;28;20450;-81
2022/01/09 04:34:00;;;;;;;0.40;0.30;;;;;;;;;;4962160;28;20444;-83
2022/01/09 04:36:27;;;;;;;0.30;0.20;;;;;;;;;;4963753;28;20191;-82
2022/01/09 04:38:54;;;;;;;0.40;0.40;;;4.50;99.90;;;;;;4975628;28;20500;-81
2022/01/09 04:41:19;;;;;;;0.47;0.30;;;4.50;99.90;;;;;;4971906;28;20733;-83
2022/01/09 04:43:46;;;;;;;0.40;0.30;;;4.50;99.90;;;;;;4967924;28;20199;-81
2022/01/09 04:46:19;;;;;;;0.30;0.30;;;;;;;;;;4969432;28;20181;-81
2022/01/09 04:48:46;;;;;;;0.40;0.40;;;4.60;99.90;;;;;;4972315;28;20183;-82
2022/01/09 04:51:14;;;;;;;0.40;0.20;;;4.50;99.90;;;;;;4967900;28;20173;-82
2022/01/09 04:53:39;;;;;;;0.30;0.30;;;4.50;99.90;;;;;;4967560;28;20232;-83
2022/01/09 04:56:05;;;;;;;0.50;0.40;;;4.50;99.90;;;;;;4971460;28;20176;-83
2022/01/09 04:58:31;;;;;;;0.30;0.30;;;;;;;;;;4966513;28;20192;-83
2022/01/09 05:00:56;;;;;;;0.60;0.40;;;4.40;99.90;;;;;;4968452;28;20187;-82
2022/01/09 05:03:22;;;;;;;0.30;0.20;;;;;;;;;;4970189;28;20456;-82
2022/01/09 05:05:48;;;;;;;0.45;0.30;;;4.30;99.90;;;;;;4973897;28;20234;-82
2022/01/09 05:08:14;;;;;;;0.40;0.30;;;4.30;99.90;;;;;;4965211;28;20656;-83
2022/01/09 05:10:40;;;;;;;0.40;0.40;;;;;;;;;;4966654;28;20837;-82
2022/01/09 05:13:05;;;;;;;0.30;0.30;;;4.20;99.90;;;;;;4962912;28;20238;-83
2022/01/09 05:15:31;;;;;;;0.30;0.30;;;;;;;;;;4961516;28;20458;-83
2022/01/09 05:18:00;;;;;;;0.60;0.30;;;4.10;99.90;;;;;;4959141;28;20192;-82
2022/01/09 05:20:26;;;;;;;0.38;0.28;;;4.00;99.90;;;;;;4960180;28;20970;-84
2022/01/09 05:22:52;;;;;;;0.50;0.38;;;3.90;99.90;;;;;;4963536;28;20219;-83
2022/01/09 05:25:18;;;;;;;0.40;0.30;;;;;;;;;;4972137;28;20199;-83
2022/01/09 05:27:43;;;;;;;0.40;0.20;;;3.80;99.90;;;;;;4963670;28;20180;-81
2022/01/09 05:30:09;;;;;;;0.30;0.30;;;3.60;99.90;;;;;;4964912;28;20451;-82
2022/01/09 05:32:35;;;;;;;0.40;0.40;;;;;;;;;;4963475;28;20220;-81
2022/01/09 05:35:02;;;;;;;2.20;0.80;;;3.50;99.90;;;;;;4965989;28;20446;-83
2022/01/09 05:37:27;;;;;;;0.35;0.28;;;3.40;99.90;;;;;;4971080;28;20444;-83
2022/01/09 05:39:53;;;;;;;1.70;0.50;;;;;;;;;;4963036;28;20298;-82
2022/01/09 05:42:19;;;;;;;0.37;0.30;;;;;;;;;;4968835;28;20342;-83
2022/01/09 05:44:47;;;;;;;0.30;0.30;;;;;;;;;;4962450;28;21160;-83
2022/01/09 05:47:12;;;;;;;1.08;0.35;;;3.30;99.90;;;;;;4958662;28;20439;-83
2022/01/09 05:49:38;;;;;;;0.63;0.50;;;;;;;;;;4963331;28;20192;-81
2022/01/09 05:52:04;;;;;;;0.80;0.40;;;3.40;99.90;;;;;;4960323;28;20216;-82
2022/01/09 05:54:30;;;;;;;0.70;0.70;;;3.40;99.90;;;;;;4964906;28;20527;-84
2022/01/09 05:56:56;;;;;;;0.63;0.60;;;;;;;;;;4967202;28;21268;-82
2022/01/09 05:59:22;;;;;;;2.93;0.70;;;;;;;;;;4955838;28;20184;-83
2022/01/09 06:01:48;;;;;;;1.37;0.70;;;;;;;;;;4978367;28;20533;-82
2022/01/09 06:04:13;;;;;;;1.30;0.82;;;3.60;99.90;;;;;;4969530;28;20439;-81
2022/01/09 06:06:39;;;;;;;4.20;0.50;;;3.50;99.90;;;;;;4958045;28;20235;-83
2022/01/09 06:09:04;;;;;;;1.07;0.47;;;3.50;99.90;;;;;;4959622;28;20685;-84
2022/01/09 06:11:30;;;;;;;1.13;0.40;;;;;;;;;;4961669;28;20180;-83
2022/01/09 06:13:56;;;;;;;1.85;0.40;;;;;;;;;;4958376;28;20176;-83
2022/01/09 06:16:24;;;;;;;1.47;1.13;;;3.70;99.90;;;;;;4971174;28;20253;-83
2022/01/09 06:18:49;;;;;;;2.33;0.70;;;3.70;99.90;;;;;;4954974;28;20460;-86
2022/01/09 06:21:15;;;;;;;1.10;0.50;;;;;;;;;;4956885;28;20199;-85
2022/01/09 06:23:41;;;;;;;0.77;0.50;;;3.70;99.90;;;;;;4962987;23;20682;-85
2022/01/09 06:26:06;;;;;;;0.77;0.70;;;3.70;99.90;;;;;;4974937;28;20450;-85
2022/01/09 06:28:32;;;;;;;4.23;0.63;;;3.70;99.90;;;;;;4968317;28;20183;-85
2022/01/09 06:30:58;;;;;;;1.57;0.70;;;;;;;;;;4968182;28;20193;-87
2022/01/09 06:33:23;;;;;;;0.57;0.50;;;;;;;;;;4972984;28;20229;-85
2022/01/09 06:35:49;;;;;;;3.57;0.77;;;;;;;;;;4965249;28;20562;-85
2022/01/09 06:38:16;;;;;;;0.50;0.40;;;;;;;;;;4968292;28;20438;-87
2022/01/09 06:40:41;;;;;;;2.42;0.82;;;3.70;99.90;;;;;;4969456;28;20434;-87
2022/01/09 06:43:07;;;;;;;0.67;0.57;;;;;;;;;;4971109;28;20295;-85
2022/01/09 06:45:33;;;;;;;0.50;0.32;;;;;;;;;;4971816;28;20259;-84
2022/01/09 06:47:59;;;;;;;1.45;0.70;;;3.70;99.90;;;;;;4967291;28;20237;-84
2022/01/09 06:50:26;;;;;;;4.37;0.67;;;3.80;99.90;;;;;;5010479;28;20207;-85
2022/01/09 06:52:52;;;;;;;0.93;0.82;;;3.80;99.90;;;;;;4977975;28;20537;-85
2022/01/09 06:55:18;;;;;;;0.77;0.60;;;;;;;;;;4967741;28;20259;-83
2022/01/09 06:57:44;;;;;;;0.95;0.50;;;3.70;99.90;;;;;;4966535;28;20434;-86
2022/01/09 07:00:11;;;;;;;5.30;0.80;;;3.60;99.90;;;;;;4971771;28;20184;-86
2022/01/09 07:02:37;;;;;;;1.15;0.70;;;3.60;99.90;;;;;;4971049;28;20210;-86
2022/01/09 07:05:03;;;;;;;0.70;0.70;;;3.60;99.90;;;;;;4976047;28;20184;-87
2022/01/09 07:07:29;;;;;;;1.73;1.30;;;3.60;99.90;;;;;;4970103;28;20285;-86
2022/01/09 07:09:55;;;;;;;1.27;0.63;;;;;;;;;;4967850;28;20187;-89
2022/01/09 07:12:21;;;;;;;3.50;1.83;;;3.70;99.90;;;;;;4971434;28;21062;-87
2022/01/09 07:14:46;;;;;;;2.10;0.80;;;3.60;99.90;;;;;;4965607;28;20452;-89
2022/01/09 07:17:13;;;;;;;6.67;1.77;;;;;;;;;;4962726;28;20175;-87
2022/01/09 07:19:38;;;;;;;4.35;1.10;;;3.70;99.90;;;;;;4976526;28;20987;-89
2022/01/09 07:22:05;;;;;;;3.60;2.30;;;3.60;99.90;;;;;;4985269;28;20310;-86
2022/01/09 07:24:31;;;;;;;4.07;1.15;;;3.70;99.90;;;;;;4970537;28;20198;-86
2022/01/09 07:26:57;;;;;;;3.80;1.73;;;3.70;99.90;;;;;;4988398;28;20800;-86
2022/01/09 07:29:22;;;;;;;4.53;1.70;;;;;;;;;;4969415;28;20187;-86
2022/01/09 07:31:51;;;;;;;3.90;1.70;;;;;;;;;;4972833;28;20593;-85
2022/01/09 07:34:17;;;;;;;3.28;1.25;;;3.70;99.90;;;;;;4962216;28;20808;-86
2022/01/09 07:36:43;;;;;;;4.45;1.67;;;3.60;99.90;;;;;;4985420;28;20298;-88
2022/01/09 07:39:09;;;;;;;3.00;1.80;;;;;;;;;;4974351;28;20299;-88
2022/01/09 07:41:35;;;;;;;6.03;1.17;;;;;;;;;;4972113;28;20252;-88
2022/01/09 07:44:01;;;;;;;3.57;1.23;;;;;;;;;;4966480;28;20443;-88
2022/01/09 07:46:26;;;;;;;5.03;1.52;;;3.60;99.90;;;;;;4972194;28;20466;-88
2022/01/09 07:48:52;;;;;;;6.10;1.73;;;;;;;;;;4973208;28;20175;-86
2022/01/09 07:51:18;;;;;;;7.63;1.70;;;3.60;99.90;;;;;;4968866;28;20214;-88
2022/01/09 07:53:44;;;;;;;2.10;1.00;;;;;;;;;;4969737;28;20531;-85
2022/01/09 07:56:09;;;;;;;5.73;1.70;;;;;;;;;;4966010;28;20276;-85
2022/01/09 07:58:35;;;;;;;5.03;1.50;;;3.60;99.90;;;;;;4969543;28;20475;-87
2022/01/09 08:01:01;;;;;;;3.00;1.33;;;;;;;;;;4964558;28;21112;-88
2022/01/09 08:03:27;;;;;;;2.70;1.08;;;;;;;;;;4967641;28;20207;-87
2022/01/09 08:05:53;;;;;;;2.15;1.38;;;3.50;99.90;;;;;;4978127;28;20179;-84
2022/01/09 08:08:19;;;;;;;9.13;2.60;;;;;;;;;;4994621;28;20188;-85
2022/01/09 08:10:45;;;;;;;2.10;0.97;;;;;;;;;;4976898;28;20593;-86
2022/01/09 08:13:10;;;;;;;7.83;1.87;;;;;;;;;;4972392;28;20878;-85
2022/01/09 08:15:36;;;;;;;3.50;1.00;;;3.50;99.90;;;;;;4969024;28;20438;-84
2022/01/09 08:18:02;;;;;;;7.00;1.80;;;;;;;;;;4971767;28;20439;-85
2022/01/09 08:20:28;;;;;;;6.00;1.70;;;;;;;;;;4974372;28;20179;-87
2022/01/09 08:22:54;;;;;;;3.75;1.10;;;3.50;99.90;;;;;;4977635;28;20467;-85
2022/01/09 08:25:19;;;;;;;3.90;1.17;;;3.50;99.90;;;;;;4972433;28;20210;-84
2022/01/09 08:27:46;;;;;;;11.23;1.63;;;3.50;99.90;;;;;;4963426;28;20188;-85
2022/01/09 08:30:14;;;;;;;3.72;1.50;;;3.50;99.90;;;;;;4979407;28;20187;-87
2022/01/09 08:32:39;;;;;;;12.30;1.50;;;3.50;99.90;;;;;;4972211;28;20309;-85
2022/01/09 08:35:06;;;;;;;2.77;0.70;;;3.60;99.90;;;;;;4974027;28;20215;-87
2022/01/09 08:37:32;;;;;;;6.38;1.73;;;3.60;99.90;;;;;;4973880;28;20451;-84
2022/01/09 08:39:58;;;;;;;4.40;2.17;;;;;;;;;;4972757;28;20184;-87
2022/01/09 08:42:24;;;;;;;4.10;2.53;;;;;;;;;;4969104;28;20486;-85
2022/01/09 08:44:49;;;;;;;9.25;1.85;;;3.60;99.90;;;;;;4972294;28;20442;-86
2022/01/09 08:47:15;;;;;;;11.23;2.40;;;3.60;99.90;;;;;;4970829;28;20191;-86
2022/01/09 08:49:41;;;;;;;8.23;1.70;;;;;;;;;;4975081;28;20202;-86
2022/01/09 08:52:07;;;;;;;9.43;1.47;;;3.60;99.90;;;;;;4971178;28;20208;-87
2022/01/09 08:54:33;;;;;;;1.03;0.90;;;;;;;;;;4978291;28;20448;-88
2022/01/09 08:56:58;;;;;;;11.68;2.97;;;3.70;99.90;;;;;;4991819;28;20460;-83
2022/01/09 08:59:26;;;;;;;2.80;1.27;;;;;;;;;;4980350;28;20187;-86
2022/01/09 09:01:52;;;;;;;2.55;1.42;;;3.70;99.90;;;;;;4973745;28;20301;-84
2022/01/09 09:04:17;;;;;;;12.77;2.72;;;3.70;99.90;;;;;;4967198;28;20266;-82
2022/01/09 09:06:44;;;;;;;11.27;1.70;;;;;;;;;;4970551;28;20624;-87
2022/01/09 09:09:09;;;;;;;7.03;2.13;;;3.70;99.90;;;;;;4974165;28;20484;-85
2022/01/09 09:11:36;;;;;;;7.37;1.60;;;3.80;99.90;;;;;;4969204;28;20215;-87
2022/01/09 09:14:02;;;;;;;4.97;1.50;;;3.70;99.90;;;;;;4985554;28;20190;-86
2022/01/09 09:16:29;;;;;;;4.95;1.33;;;3.80;99.90;;;;;;4966987;28;20183;-86
2022/01/09 09:18:54;;;;;;;4.63;1.80;;;3.80;99.90;;;;;;4971096;28;20188;-84
2022/01/09 09:21:20;;;;;;;9.63;1.80;;;;;;;;;;4968908;28;20180;-85
2022/01/09 09:23:46;;;;;;;3.30;1.25;;;3.90;99.90;;;;;;4992287;28;20215;-83
2022/01/09 09:26:12;;;;;;;5.13;1.50;;;4.00;99.90;;;;;;4981763;28;20750;-85
2022/01/09 09:28:38;;;;;;;4.07;1.38;;;4.00;99.90;;;;;;4975240;28;20191;-87
2022/01/09 09:31:05;;;;;;;3.43;1.37;;;4.00;99.90;;;;;;4975923;28;20272;-86
2022/01/09 09:33:31;;;;;;;7.30;1.27;;;4.00;99.90;;;;;;4975786;28;20530;-85
2022/01/09 09:35:59;;;;;;;3.90;1.60;;;;;;;;;;4987657;28;20199;-88
2022/01/09 09:38:26;;;;;;;2.80;1.63;;;4.10;99.90;;;;;;4962844;28;20468;-87
2022/01/09 09:40:51;;;;;;;4.32;2.53;;;4.10;99.90;;;;;;4972036;28;22523;-87
2022/01/09 09:43:19;;;;;;;7.70;1.73;;;;;;;;;;4969335;28;20297;-86
2022/01/09 09:45:45;;;;;;;10.30;2.05;;;4.10;99.90;;;;;;4961227;28;20218;-85
2022/01/09 09:48:11;;;;;;;7.43;1.55;;;4.10;99.90;;;;;;4972726;28;20677;-85
2022/01/09 09:50:38;;;;;;;3.60;1.70;;;4.20;99.90;;;;;;4963552;28;20191;-85
2022/01/09 09:53:05;;;;;;;17.42;2.47;;;4.20;99.90;;;;;;4990020;28;20544;-87
2022/01/09 09:55:30;;;;;;;12.77;1.50;;;4.20;99.90;;;;;;4958178;28;20747;-84
2022/01/09 09:57:57;;;;;;;6.20;1.90;;;;;;;;;;4962208;28;20187;-85
2022/01/09 10:00:23;;;;;;;1.73;1.15;;;4.20;99.90;;;;;;4966229;28;20435;-87
2022/01/09 10:02:54;;;;;;;4.55;1.48;;;4.20;99.90;;;;;;4975669;28;20210;-87
2022/01/09 10:05:28;;;;;;;7.10;1.55;;;4.20;99.90;;;;;;4962543;28;20291;-87
2022/01/09 10:08:03;;;;;;;5.68;1.77;;;4.30;99.90;;;;;;4965274;28;20192;-85
2022/01/09 10:10:33;;;;;;;2.47;1.35;;;4.30;99.90;;;;;;4977044;28;20179;-84
2022/01/09 10:13:07;;;;;;;5.80;1.88;;;4.40;99.90;;;;;;4968787;28;20219;-85
2022/01/09 10:15:44;;;;;;;6.65;2.35;;;4.30;99.90;;;;;;4968926;28;20194;-87
2022/01/09 10:18:10;;;;;;;9.82;1.60;;;4.40;99.90;;;;;;4969400;28;20197;-85
2022/01/09 10:20:36;;;;;;;4.28;1.25;;;4.50;99.90;;;;;;4965182;28;20240;-84
2022/01/09 10:23:02;;;;;;;4.60;1.30;;;;;;;;;;4969281;28;20356;-86
2022/01/09 10:25:37;;;;;;;6.13;0.93;;;4.50;99.90;;;;;;4965224;28;20582;-86
2022/01/09 10:28:03;;;;;;;2.97;1.25;;;;;;;;;;4967143;28;20449;-87
2022/01/09 10:30:41;;;;;;;6.70;1.10;;;4.40;99.90;;;;;;4968502;28;20190;-85
2022/01/09 10:33:13;;;;;;;4.82;1.30;;;4.30;99.90;;;;;;4968974;28;20507;-87
2022/01/09 10:35:41;;;;;;;6.80;2.55;;;4.40;99.90;;;;;;4978617;28;20175;-86
2022/01/09 10:38:12;;;;;;;7.85;1.73;;;4.50;99.90;;;;;;4985285;28;20204;-88
2022/01/09 10:40:40;;;;;;;4.22;1.30;;;4.40;99.90;;;;;;4996362;28;20198;-86
2022/01/09 10:43:12;;;;;;;9.63;1.77;;;4.20;99.90;;;;;;4981493;28;20199;-88
2022/01/09 10:45:46;;;;;;;4.32;1.23;;;4.20;99.90;;;;;;4970031;28;20183;-86
2022/01/09 10:48:17;;;;;;;2.55;2.13;;;4.20;99.90;;;;;;4969661;28;20175;-86
2022/01/09 10:50:43;;;;;;;4.07;1.80;;;4.30;99.90;;;;;;4971444;28;20188;-87
2022/01/09 10:53:26;;;;;;;5.28;1.42;;;4.30;99.90;;;;;;4977028;28;20302;-85
2022/01/09 10:56:15;;;;;;;9.52;2.35;;;4.40;99.90;;;;;;4977088;28;20187;-85
2022/01/09 10:58:43;;;;;;;8.30;1.90;;;4.50;99.90;;;;;;4974455;28;20611;-85
2022/01/09 11:01:20;;;;;;;2.60;1.60;;;4.40;99.90;;;;;;4971627;28;20196;-85
2022/01/09 11:03:53;;;;;;;5.85;1.77;;;4.30;99.90;;;;;;4977438;28;20307;-87
2022/01/09 11:06:19;;;;;;;7.50;2.28;;;4.40;99.90;;;;;;4973802;28;20210;-86
2022/01/09 11:08:46;;;;;;;3.15;1.63;;;4.40;99.90;;;;;;4972348;28;21022;-85
2022/01/09 11:11:27;;;;;;;5.45;1.52;;;4.40;99.90;;;;;;4971484;28;21028;-85
2022/01/09 11:13:55;;;;;;;11.70;3.70;;;4.30;99.90;;;;;;4981744;28;20219;-86
2022/01/09 11:16:42;;;;;;;8.80;1.15;;;4.30;99.90;;;;;;4980122;28;20188;-86
2022/01/09 11:19:13;;;;;;;6.20;2.38;;;4.40;99.90;;;;;;4973984;28;20232;-85
2022/01/09 11:21:47;;;;;;;10.88;3.30;;;4.60;99.90;;;;;;4974891;28;20183;-85
2022/01/09 11:24:20;;;;;;;5.88;2.00;;;4.70;99.90;;;;;;4977501;28;20303;-84
2022/01/09 11:26:55;;;;;;;2.33;1.10;;;4.80;99.90;;;;;;4977415;28;20286;-86
2022/01/09 11:29:54;;;;;;;4.05;2.20;;;4.70;99.90;;;;;;4963071;28;20218;-86
2022/01/09 11:32:44;;;;;;;7.07;3.83;;;4.70;99.90;;;;;;4976321;28;20211;-86
2022/01/09 11:35:38;;;;;;;3.30;2.45;;;4.90;99.90;;;;;;4964522;28;20187;-85
2022/01/09 11:38:35;;;;;;;2.88;1.52;;;4.60;99.90;;;;;;4977255;28;20505;-87
2022/01/09 11:41:25;;;;;;;9.68;2.15;;;4.50;99.90;;;;;;4973169;28;20180;-86
2022/01/09 11:44:00;;;;;;;2.38;1.45;;;4.20;99.90;;;;;;4963672;28;20214;-85
2022/01/09 11:46:28;;;;;;;5.30;1.77;;;4.00;99.90;;;;;;4973909;28;20187;-86
2022/01/09 11:48:53;;;;;;;4.50;1.63;;;4.10;99.90;;;;;;4980243;28;20196;-86
2022/01/09 11:51:30;;;;;;;13.83;2.10;;;4.10;99.90;;;;;;4972840;28;20294;-86
2022/01/09 11:54:01;;;;;;;7.07;2.40;;;4.10;99.90;;;;;;4973598;28;20230;-86
2022/01/09 11:56:51;;;;;;;1.38;1.27;;;4.20;99.90;;;;;;4969346;28;20239;-86
2022/01/09 11:59:30;;;;;;;8.50;1.65;;;4.30;99.90;;;;;;4977291;28;20217;-86
2022/01/09 12:02:12;;;;;;;4.00;1.30;;;4.40;99.90;;;;;;4979126;28;20256;-87
2022/01/09 12:04:40;;;;;;;5.80;1.65;;;4.40;99.90;;;;;;4969293;28;20240;-86
2022/01/09 12:07:16;;;;;;;3.50;1.60;;;4.40;99.90;;;;;;4980170;28;20198;-86
2022/01/09 12:09:47;;;;;;;3.28;1.25;;;5.00;99.90;;;;;;4968958;28;20193;-87
2022/01/09 12:12:15;;;;;;;4.68;2.13;;;4.20;99.90;;;;;;4967256;28;20211;-86
2022/01/09 12:15:09;;;;;;;5.18;1.40;;;4.40;99.90;;;;;;4973508;28;20188;-86
2022/01/09 12:17:41;;;;;;;3.70;1.05;;;4.50;99.90;;;;;;4970404;28;20191;-86
2022/01/09 12:20:14;;;;;;;3.95;1.60;;;5.40;99.90;;;;;;4975821;28;20183;-87
2022/01/09 12:22:43;;;;;;;3.33;2.10;;;4.80;99.90;;;;;;4978117;28;20753;-87
2022/01/09 12:25:10;;;;;;;7.22;1.20;;;4.60;99.90;;;;;;4974726;28;20215;-86
2022/01/09 12:27:35;;;;;;;2.92;1.88;;;4.50;99.90;;;;;;4970147;28;20626;-85
2022/01/09 12:30:05;;;;;;;2.50;1.10;;;4.40;99.90;;;;;;4973277;28;20282;-87
2022/01/09 12:32:46;;;;;;;2.92;1.35;;;4.30;99.90;;;;;;4985380;28;20824;-86
2022/01/09 12:35:20;;;;;;;4.00;1.30;;;4.30;99.90;;;;;;4969860;28;20194;-86
2022/01/09 12:37:53;;;;;;;17.45;5.47;;;4.30;99.90;;;;;;4970350;28;20521;-85
2022/01/09 12:40:24;;;;;;;4.82;1.88;;;4.50;99.90;;;;;;4973375;28;21376;-85
2022/01/09 12:42:58;;;;;;;8.77;1.60;;;4.60;99.90;;;;;;4966597;28;20218;-86
2022/01/09 12:45:31;;;;;;;3.28;1.40;;;4.50;99.90;;;;;;4971786;28;20192;-86
2022/01/09 12:47:58;;;;;;;5.60;1.48;;;4.20;99.90;;;;;;4973336;28;20184;-86
2022/01/09 12:50:30;;;;;;;2.75;1.10;;;4.10;99.90;;;;;;4971916;28;20261;-85
2022/01/09 12:53:14;;;;;;;1.92;1.13;;;4.20;99.90;;;;;;4973293;28;20200;-86
2022/01/09 12:56:01;;;;;;;2.83;1.60;;;4.30;99.90;;;;;;4971127;28;20195;-85
2022/01/09 12:58:29;;;;;;;5.40;2.05;;;4.30;99.90;;;;;;4976627;28;20183;-85
2022/01/09 13:00:55;;;;;;;5.07;1.85;;;4.30;99.90;;;;;;4971344;28;20211;-86
2022/01/09 13:03:22;;;;;;;5.78;3.60;;;4.20;99.90;;;;;;4979370;28;20580;-87
2022/01/09 13:06:08;;;;;;;2.75;1.42;;;4.10;99.90;;;;;;4966574;28;20282;-86
2022/01/09 13:09:04;;;;;;;4.45;1.60;;;4.10;99.90;;;;;;4969302;28;21162;-86
2022/01/09 13:11:31;;;;;;;13.77;1.65;;;4.00;99.90;;;;;;4965763;28;20676;-87
2022/01/09 13:13:59;;;;;;;3.05;0.85;;;4.00;99.90;;;;;;4970454;28;20285;-83
2022/01/09 13:16:34;;;;;;;4.60;1.27;;;3.90;99.90;;;;;;4996566;28;20191;-83
2022/01/09 13:19:15;;;;;;;2.40;1.10;;;3.90;99.90;;;;;;4974793;28;20185;-85